createdAt,value
2023-01-09T00:00:35.909Z,193.90
2023-01-09T00:01:35.775Z,182.80
2023-01-09T00:02:35.815Z,186.30
2023-01-09T00:03:35.759Z,183.30
2023-01-09T00:04:35.732Z,184.60
2023-01-09T00:05:35.773Z,184.00
2023-01-09T00:06:35.724Z,182.50
2023-01-09T00:07:35.701Z,179.70
2023-01-09T00:08:35.686Z,178.90
2023-01-09T00:09:35.676Z,181.20
2023-01-09T00:10:35.711Z,176.60
2023-01-09T00:11:35.650Z,190.20
2023-01-09T00:12:35.647Z,183.70
2023-01-09T00:13:35.613Z,200.90
2023-01-09T00:14:35.624Z,180.10
2023-01-09T00:15:35.652Z,184.90
2023-01-09T00:16:35.654Z,187.90
2023-01-09T00:17:35.604Z,183.40
2023-01-09T00:18:35.597Z,180.70
2023-01-09T00:19:35.606Z,178.20
2023-01-09T00:20:35.627Z,176.80
2023-01-09T00:21:35.546Z,183.70
2023-01-09T00:22:35.530Z,191.40
2023-01-09T00:23:35.533Z,170.30
2023-01-09T00:24:35.520Z,173.20
2023-01-09T00:25:35.558Z,181.50
2023-01-09T00:26:35.517Z,190.00
2023-01-09T00:27:35.475Z,172.80
2023-01-09T00:28:35.471Z,179.00
2023-01-09T00:29:35.467Z,174.60
2023-01-09T00:30:35.495Z,176.00
2023-01-09T00:31:35.431Z,173.70
2023-01-09T00:32:35.425Z,179.30
2023-01-09T00:33:35.427Z,184.50
2023-01-09T00:34:35.407Z,177.80
2023-01-09T00:35:35.426Z,174.40
2023-01-09T00:36:35.394Z,170.40
2023-01-09T00:37:35.361Z,164.10
2023-01-09T00:38:35.357Z,171.10
2023-01-09T00:39:35.331Z,177.20
2023-01-09T00:40:35.362Z,217.00
2023-01-09T00:41:35.297Z,224.20
2023-01-09T00:42:35.305Z,258.70
2023-01-09T00:43:35.284Z,250.80
2023-01-09T00:44:35.265Z,212.10
2023-01-09T00:45:35.316Z,205.10
2023-01-09T00:46:35.254Z,173.00
2023-01-09T00:47:35.258Z,198.50
2023-01-09T00:48:35.226Z,188.50
2023-01-09T00:49:35.230Z,169.30
2023-01-09T00:50:35.279Z,186.70
2023-01-09T00:51:35.204Z,170.50
2023-01-09T00:52:35.216Z,206.30
2023-01-09T00:53:35.168Z,218.00
2023-01-09T00:54:35.182Z,199.10
2023-01-09T00:55:35.194Z,173.90
2023-01-09T00:56:35.163Z,155.60
2023-01-09T00:57:35.126Z,155.90
2023-01-09T00:58:35.136Z,155.50
2023-01-09T00:59:35.114Z,169.90
2023-01-09T01:00:35.134Z,159.40
2023-01-09T01:01:35.246Z,158.80
2023-01-09T01:02:35.080Z,161.90
2023-01-09T01:03:35.079Z,165.20
2023-01-09T01:04:35.054Z,158.20
2023-01-09T01:05:35.111Z,162.00
2023-01-09T01:06:35.029Z,153.90
2023-01-09T01:07:35.057Z,159.10
2023-01-09T01:08:35.020Z,166.40
2023-01-09T01:09:34.998Z,154.30
2023-01-09T01:10:35.011Z,163.10
2023-01-09T01:11:34.972Z,178.00
2023-01-09T01:12:34.980Z,180.30
2023-01-09T01:13:34.946Z,187.90
2023-01-09T01:14:34.947Z,174.30
2023-01-09T01:15:34.943Z,186.60
2023-01-09T01:16:34.955Z,192.70
2023-01-09T01:17:34.903Z,187.10
2023-01-09T01:18:34.904Z,192.80
2023-01-09T01:19:34.880Z,192.50
2023-01-09T01:20:34.899Z,203.50
2023-01-09T01:21:34.861Z,206.20
2023-01-09T01:22:34.840Z,207.60
2023-01-09T01:23:34.830Z,218.20
2023-01-09T01:24:34.809Z,210.00
2023-01-09T01:25:34.851Z,212.30
2023-01-09T01:26:34.794Z,202.20
2023-01-09T01:27:34.801Z,192.70
2023-01-09T01:28:34.767Z,181.70
2023-01-09T01:29:34.765Z,170.90
2023-01-09T01:30:34.806Z,182.90
2023-01-09T01:31:34.741Z,176.80
2023-01-09T01:32:34.755Z,167.00
2023-01-09T01:33:34.739Z,164.90
2023-01-09T01:34:34.710Z,160.10
2023-01-09T01:35:34.739Z,161.90
2023-01-09T01:36:34.681Z,165.40
2023-01-09T01:37:34.673Z,159.00
2023-01-09T01:38:34.672Z,158.00
2023-01-09T01:39:34.669Z,158.30
2023-01-09T01:40:34.681Z,159.50
2023-01-09T01:41:34.623Z,174.40
2023-01-09T01:42:34.606Z,158.10
2023-01-09T01:43:34.605Z,158.30
2023-01-09T01:44:34.609Z,168.80
2023-01-09T01:45:34.603Z,176.40
2023-01-09T01:46:34.569Z,182.80
2023-01-09T01:47:34.559Z,161.80
2023-01-09T01:48:34.527Z,177.20
2023-01-09T01:49:34.561Z,172.60
2023-01-09T01:50:34.587Z,173.70
2023-01-09T01:51:34.514Z,163.80
2023-01-09T01:52:34.521Z,162.20
2023-01-09T01:53:34.526Z,170.80
2023-01-09T01:54:34.496Z,164.00
2023-01-09T01:55:34.510Z,166.20
2023-01-09T01:56:34.468Z,168.70
2023-01-09T01:57:34.455Z,168.00
2023-01-09T01:58:34.434Z,164.20
2023-01-09T01:59:34.430Z,162.50
2023-01-09T02:00:34.455Z,156.00
2023-01-09T02:01:34.476Z,156.00
2023-01-09T02:02:34.413Z,153.50
2023-01-09T02:03:34.388Z,153.00
2023-01-09T02:04:34.375Z,166.30
2023-01-09T02:05:34.366Z,168.20
2023-01-09T02:06:34.395Z,161.10
2023-01-09T02:07:34.329Z,159.10
2023-01-09T02:08:34.334Z,158.10
2023-01-09T02:09:34.314Z,164.60
2023-01-09T02:10:34.294Z,155.30
2023-01-09T02:11:34.335Z,150.60
2023-01-09T02:12:34.281Z,147.50
2023-01-09T02:13:34.277Z,148.70
2023-01-09T02:14:34.260Z,134.80
2023-01-09T02:15:34.262Z,195.40
2023-01-09T02:16:34.279Z,173.00
2023-01-09T02:17:34.216Z,167.10
2023-01-09T02:18:34.202Z,158.50
2023-01-09T02:19:34.189Z,149.30
2023-01-09T02:20:34.174Z,150.10
2023-01-09T02:21:34.212Z,148.10
2023-01-09T02:22:34.154Z,140.30
2023-01-09T02:23:34.148Z,136.20
2023-01-09T02:24:34.156Z,112.10
2023-01-09T02:25:34.122Z,133.20
2023-01-09T02:26:34.147Z,123.10
2023-01-09T02:27:34.102Z,154.40
2023-01-09T02:28:34.094Z,134.60
2023-01-09T02:29:34.083Z,148.10
2023-01-09T02:30:34.087Z,145.30
2023-01-09T02:31:34.105Z,145.40
2023-01-09T02:32:34.048Z,147.40
2023-01-09T02:33:34.041Z,160.00
2023-01-09T02:34:34.013Z,108.20
2023-01-09T02:35:34.067Z,91.10
2023-01-09T02:36:34.039Z,116.30
2023-01-09T02:37:33.999Z,100.40
2023-01-09T02:38:33.986Z,110.10
2023-01-09T02:39:33.963Z,104.40
2023-01-09T02:40:33.962Z,113.90
2023-01-09T02:41:33.986Z,112.10
2023-01-09T02:42:33.927Z,108.40
2023-01-09T02:43:33.950Z,119.80
2023-01-09T02:44:33.910Z,139.50
2023-01-09T02:45:33.915Z,131.50
2023-01-09T02:46:33.927Z,134.20
2023-01-09T02:47:33.876Z,120.70
2023-01-09T02:48:33.867Z,113.70
2023-01-09T02:49:33.858Z,120.50
2023-01-09T02:50:33.838Z,121.80
2023-01-09T02:51:33.871Z,114.10
2023-01-09T02:52:33.823Z,122.90
2023-01-09T02:53:33.794Z,127.80
2023-01-09T02:54:33.790Z,100.00
2023-01-09T02:55:33.777Z,114.90
2023-01-09T02:56:33.812Z,118.70
2023-01-09T02:57:33.784Z,125.50
2023-01-09T02:58:33.752Z,139.80
2023-01-09T02:59:33.759Z,139.80
2023-01-09T03:00:33.719Z,136.60
2023-01-09T03:01:33.873Z,112.00
2023-01-09T03:02:33.728Z,118.90
2023-01-09T03:03:33.701Z,114.50
2023-01-09T03:04:33.684Z,141.20
2023-01-09T03:05:33.687Z,177.30
2023-01-09T03:06:33.683Z,150.40
2023-01-09T03:07:33.638Z,94.90
2023-01-09T03:08:33.633Z,118.90
2023-01-09T03:09:33.692Z,151.60
2023-01-09T03:10:33.619Z,140.40
2023-01-09T03:11:33.650Z,106.70
2023-01-09T03:12:33.590Z,146.70
2023-01-09T03:13:33.572Z,172.40
2023-01-09T03:14:33.572Z,227.50
2023-01-09T03:15:33.575Z,208.40
2023-01-09T03:16:33.590Z,150.50
2023-01-09T03:17:33.562Z,213.30
2023-01-09T03:18:33.521Z,218.30
2023-01-09T03:19:33.519Z,254.00
2023-01-09T03:20:33.513Z,239.30
2023-01-09T03:21:33.559Z,137.30
2023-01-09T03:22:33.490Z,152.40
2023-01-09T03:23:33.473Z,600.40
2023-01-09T03:24:33.465Z,277.40
2023-01-09T03:25:33.446Z,211.30
2023-01-09T03:26:33.453Z,357.40
2023-01-09T03:27:33.428Z,999.90
2023-01-09T03:28:33.404Z,616.80
2023-01-09T03:29:33.395Z,320.90
2023-01-09T03:30:33.404Z,595.50
2023-01-09T03:31:33.473Z,810.20
2023-01-09T03:32:33.370Z,999.90
2023-01-09T03:33:33.354Z,576.00
2023-01-09T03:34:33.337Z,295.00
2023-01-09T03:35:33.356Z,310.60
2023-01-09T03:36:33.363Z,316.00
2023-01-09T03:37:33.309Z,999.90
2023-01-09T03:38:33.301Z,281.40
2023-01-09T03:39:33.309Z,443.80
2023-01-09T03:40:33.261Z,566.40
2023-01-09T03:41:33.302Z,512.00
2023-01-09T03:42:33.259Z,307.50
2023-01-09T03:43:33.245Z,474.10
2023-01-09T03:44:33.224Z,322.60
2023-01-09T03:45:33.256Z,797.20
2023-01-09T03:46:33.235Z,242.30
2023-01-09T03:47:33.210Z,312.90
2023-01-09T03:48:33.196Z,269.90
2023-01-09T03:49:33.187Z,429.10
2023-01-09T03:50:33.171Z,295.90
2023-01-09T03:51:33.206Z,830.30
2023-01-09T03:52:33.159Z,276.40
2023-01-09T03:53:33.161Z,260.50
2023-01-09T03:54:33.130Z,277.00
2023-01-09T03:55:33.113Z,305.80
2023-01-09T03:56:33.145Z,650.50
2023-01-09T03:57:33.095Z,534.50
2023-01-09T03:58:33.081Z,735.40
2023-01-09T03:59:33.067Z,245.00
2023-01-09T04:00:33.055Z,541.60
2023-01-09T04:01:33.190Z,383.40
2023-01-09T04:02:33.021Z,240.30
2023-01-09T04:03:33.085Z,718.50
2023-01-09T04:04:33.020Z,236.70
2023-01-09T04:05:33.003Z,474.40
2023-01-09T04:06:33.029Z,223.10
2023-01-09T04:07:33.019Z,999.90
2023-01-09T04:08:32.961Z,234.10
2023-01-09T04:09:32.957Z,200.90
2023-01-09T04:10:32.957Z,599.10
2023-01-09T04:11:32.974Z,870.40
2023-01-09T04:12:32.936Z,353.50
2023-01-09T04:13:32.921Z,715.10
2023-01-09T04:14:32.900Z,990.20
2023-01-09T04:15:32.897Z,836.40
2023-01-09T04:16:32.993Z,812.10
2023-01-09T04:17:32.873Z,628.90
2023-01-09T04:18:32.868Z,531.60
2023-01-09T04:19:32.840Z,299.70
2023-01-09T04:20:32.840Z,915.00
2023-01-09T04:21:32.856Z,214.70
2023-01-09T04:22:32.826Z,260.00
2023-01-09T04:23:32.810Z,205.80
2023-01-09T04:24:32.784Z,199.60
2023-01-09T04:25:32.794Z,128.10
2023-01-09T04:26:32.769Z,138.50
2023-01-09T04:27:32.804Z,122.40
2023-01-09T04:28:32.756Z,162.10
2023-01-09T04:29:32.729Z,116.20
2023-01-09T04:30:32.727Z,119.40
2023-01-09T04:31:32.779Z,129.50
2023-01-09T04:32:32.743Z,119.10
2023-01-09T04:33:32.682Z,81.20
2023-01-09T04:34:32.677Z,113.00
2023-01-09T04:35:32.668Z,123.30
2023-01-09T04:36:32.649Z,144.10
2023-01-09T04:37:32.707Z,73.60
2023-01-09T04:38:32.625Z,122.50
2023-01-09T04:39:32.633Z,134.10
2023-01-09T04:40:32.611Z,118.00
2023-01-09T04:41:32.599Z,145.90
2023-01-09T04:42:32.611Z,139.30
2023-01-09T04:43:32.587Z,153.00
2023-01-09T04:44:32.569Z,143.50
2023-01-09T04:45:32.576Z,159.10
2023-01-09T04:46:32.542Z,133.20
2023-01-09T04:47:32.563Z,113.90
2023-01-09T04:48:32.511Z,226.70
2023-01-09T04:49:32.515Z,194.10
2023-01-09T04:50:32.512Z,210.80
2023-01-09T04:51:32.500Z,237.60
2023-01-09T04:52:32.515Z,141.80
2023-01-09T04:53:32.504Z,198.00
2023-01-09T04:54:32.466Z,222.70
2023-01-09T04:55:32.457Z,122.40
2023-01-09T04:56:32.442Z,151.90
2023-01-09T04:57:32.474Z,236.70
2023-01-09T04:58:32.424Z,141.50
2023-01-09T04:59:32.420Z,115.60
2023-01-09T05:00:32.386Z,62.90
2023-01-09T05:01:32.479Z,91.40
2023-01-09T05:02:32.431Z,171.50
2023-01-09T05:03:32.354Z,72.60
2023-01-09T05:04:32.429Z,87.40
2023-01-09T05:05:32.322Z,248.90
2023-01-09T05:06:32.340Z,88.40
2023-01-09T05:07:32.317Z,97.50
2023-01-09T05:08:32.338Z,281.20
2023-01-09T05:09:32.303Z,189.50
2023-01-09T05:10:32.277Z,201.70
2023-01-09T05:11:32.290Z,211.60
2023-01-09T05:12:32.262Z,250.90
2023-01-09T05:13:32.289Z,266.90
2023-01-09T05:14:32.233Z,233.60
2023-01-09T05:15:32.241Z,53.70
2023-01-09T05:16:32.256Z,70.10
2023-01-09T05:17:32.205Z,52.30
2023-01-09T05:18:32.251Z,63.50
2023-01-09T05:19:32.185Z,94.30
2023-01-09T05:20:32.180Z,74.50
2023-01-09T05:21:32.177Z,163.70
2023-01-09T05:22:32.158Z,242.10
2023-01-09T05:23:32.180Z,107.90
2023-01-09T05:24:32.127Z,218.50
2023-01-09T05:25:32.128Z,207.50
2023-01-09T05:26:32.087Z,145.10
2023-01-09T05:27:32.085Z,159.10
2023-01-09T05:28:32.126Z,158.60
2023-01-09T05:29:32.071Z,199.10
2023-01-09T05:30:32.069Z,208.30
2023-01-09T05:31:32.088Z,253.40
2023-01-09T05:32:32.030Z,307.00
2023-01-09T05:33:32.067Z,261.80
2023-01-09T05:34:31.995Z,124.40
2023-01-09T05:35:31.979Z,176.00
2023-01-09T05:36:31.992Z,130.60
2023-01-09T05:37:31.982Z,225.10
2023-01-09T05:38:32.004Z,145.80
2023-01-09T05:39:31.997Z,146.80
2023-01-09T05:40:39.469Z,143.50
2023-01-09T05:41:32.931Z,123.80
2023-01-09T05:42:31.928Z,191.60
2023-01-09T05:43:31.948Z,227.60
2023-01-09T05:44:31.905Z,183.20
2023-01-09T05:45:31.924Z,228.20
2023-01-09T05:46:31.884Z,240.70
2023-01-09T05:47:31.876Z,206.50
2023-01-09T05:48:31.904Z,226.50
2023-01-09T05:49:31.851Z,200.10
2023-01-09T05:50:31.865Z,180.20
2023-01-09T05:51:31.830Z,195.00
2023-01-09T05:52:31.820Z,244.30
2023-01-09T05:53:31.796Z,250.90
2023-01-09T05:54:31.830Z,162.20
2023-01-09T05:55:31.782Z,250.70
2023-01-09T05:56:31.773Z,267.80
2023-01-09T05:57:31.762Z,250.80
2023-01-09T05:58:31.743Z,204.10
2023-01-09T05:59:31.751Z,137.10
2023-01-09T06:00:31.726Z,123.90
2023-01-09T06:01:31.814Z,187.10
2023-01-09T06:02:31.850Z,239.90
2023-01-09T06:03:31.734Z,148.10
2023-01-09T06:04:31.715Z,133.20
2023-01-09T06:05:31.644Z,236.00
2023-01-09T06:06:31.631Z,267.10
2023-01-09T06:07:31.641Z,235.20
2023-01-09T06:08:31.627Z,210.20
2023-01-09T06:09:31.675Z,133.40
2023-01-09T06:10:31.622Z,232.20
2023-01-09T06:11:31.593Z,128.40
2023-01-09T06:12:31.621Z,125.30
2023-01-09T06:13:31.573Z,224.00
2023-01-09T06:14:31.606Z,139.00
2023-01-09T06:15:31.563Z,224.80
2023-01-09T06:16:31.527Z,169.60
2023-01-09T06:17:31.536Z,228.00
2023-01-09T06:18:31.529Z,261.60
2023-01-09T06:19:31.539Z,249.20
2023-01-09T06:20:31.556Z,251.40
2023-01-09T06:21:31.491Z,240.70
2023-01-09T06:22:31.479Z,241.20
2023-01-09T06:23:31.463Z,244.90
2023-01-09T06:24:31.545Z,250.20
2023-01-09T06:25:31.457Z,247.00
2023-01-09T06:26:31.451Z,252.10
2023-01-09T06:27:31.441Z,248.60
2023-01-09T06:28:31.420Z,249.30
2023-01-09T06:29:31.399Z,247.00
2023-01-09T06:30:31.449Z,234.70
2023-01-09T06:31:31.521Z,108.60
2023-01-09T06:32:31.374Z,178.30
2023-01-09T06:33:31.373Z,101.80
2023-01-09T06:34:31.358Z,187.70
2023-01-09T06:35:31.384Z,103.00
2023-01-09T06:36:31.335Z,105.30
2023-01-09T06:37:31.300Z,201.10
2023-01-09T06:38:31.321Z,100.90
2023-01-09T06:39:31.320Z,147.00
2023-01-09T06:40:31.357Z,203.10
2023-01-09T06:41:31.251Z,159.10
2023-01-09T06:42:31.268Z,237.20
2023-01-09T06:43:31.244Z,282.70
2023-01-09T06:44:31.240Z,254.30
2023-01-09T06:45:31.259Z,223.40
2023-01-09T06:46:31.248Z,108.00
2023-01-09T06:47:31.216Z,178.00
2023-01-09T06:48:31.197Z,137.10
2023-01-09T06:49:31.176Z,89.40
2023-01-09T06:50:31.192Z,92.80
2023-01-09T06:51:31.155Z,100.30
2023-01-09T06:52:31.174Z,183.70
2023-01-09T06:53:31.146Z,119.00
2023-01-09T06:54:31.095Z,125.10
2023-01-09T06:55:31.153Z,124.90
2023-01-09T06:56:31.124Z,94.70
2023-01-09T06:57:31.085Z,127.10
2023-01-09T06:58:31.103Z,193.10
2023-01-09T06:59:31.050Z,107.50
2023-01-09T07:00:31.080Z,94.50
2023-01-09T07:01:31.198Z,116.10
2023-01-09T07:02:31.049Z,147.00
2023-01-09T07:03:33.036Z,170.30
2023-01-09T07:04:30.992Z,127.60
2023-01-09T07:05:31.005Z,123.70
2023-01-09T07:06:30.995Z,159.70
2023-01-09T07:07:30.982Z,164.60
2023-01-09T07:08:30.971Z,183.10
2023-01-09T07:09:30.952Z,177.00
2023-01-09T07:10:30.980Z,198.20
2023-01-09T07:11:30.925Z,166.10
2023-01-09T07:12:30.919Z,139.10
2023-01-09T07:13:30.913Z,119.80
2023-01-09T07:14:30.888Z,172.60
2023-01-09T07:15:30.911Z,106.20
2023-01-09T07:16:30.876Z,103.80
2023-01-09T07:17:30.870Z,117.90
2023-01-09T07:18:30.840Z,131.90
2023-01-09T07:19:30.833Z,113.20
2023-01-09T07:20:30.860Z,223.40
2023-01-09T07:21:32.704Z,170.70
2023-01-09T07:22:30.832Z,157.70
2023-01-09T07:23:30.787Z,127.90
2023-01-09T07:24:30.797Z,88.30
2023-01-09T07:25:30.811Z,202.70
2023-01-09T07:26:30.768Z,162.70
2023-01-09T07:27:30.738Z,134.10
2023-01-09T07:28:30.729Z,97.90
2023-01-09T07:29:30.710Z,261.90
2023-01-09T07:30:30.751Z,149.90
2023-01-09T07:31:30.733Z,195.30
2023-01-09T07:32:30.707Z,180.80
2023-01-09T07:33:30.666Z,112.30
2023-01-09T07:34:30.662Z,107.30
2023-01-09T07:35:30.674Z,156.50
2023-01-09T07:36:30.683Z,151.80
2023-01-09T07:37:30.650Z,92.40
2023-01-09T07:38:30.630Z,188.70
2023-01-09T07:39:30.606Z,203.30
2023-01-09T07:40:30.647Z,108.80
2023-01-09T07:41:30.612Z,126.80
2023-01-09T07:42:30.593Z,159.30
2023-01-09T07:43:30.569Z,140.10
2023-01-09T07:44:30.567Z,167.00
2023-01-09T07:45:30.578Z,209.00
2023-01-09T07:46:30.565Z,160.00
2023-01-09T07:47:30.515Z,124.40
2023-01-09T07:48:30.528Z,123.40
2023-01-09T07:49:30.492Z,92.80
2023-01-09T07:50:30.528Z,113.00
2023-01-09T07:51:30.480Z,127.60
2023-01-09T07:52:30.481Z,136.50
2023-01-09T07:53:30.475Z,127.60
2023-01-09T07:54:30.457Z,159.10
2023-01-09T07:55:30.474Z,133.40
2023-01-09T07:56:30.416Z,168.40
2023-01-09T07:57:30.413Z,130.00
2023-01-09T07:58:30.418Z,198.40
2023-01-09T07:59:30.401Z,109.30
2023-01-09T08:00:32.419Z,124.80
2023-01-09T08:01:30.449Z,119.60
2023-01-09T08:02:30.376Z,91.90
2023-01-09T08:03:30.329Z,114.50
2023-01-09T08:04:30.312Z,177.50
2023-01-09T08:05:30.357Z,126.80
2023-01-09T08:06:30.327Z,98.10
2023-01-09T08:07:30.303Z,238.90
2023-01-09T08:08:30.293Z,129.40
2023-01-09T08:09:30.279Z,119.40
2023-01-09T08:10:30.304Z,100.80
2023-01-09T08:11:30.255Z,144.90
2023-01-09T08:12:30.269Z,102.30
2023-01-09T08:13:30.245Z,198.90
2023-01-09T08:14:30.228Z,107.90
2023-01-09T08:15:30.230Z,132.70
2023-01-09T08:16:30.196Z,230.20
2023-01-09T08:17:30.193Z,175.10
2023-01-09T08:18:30.171Z,111.60
2023-01-09T08:19:30.188Z,166.10
2023-01-09T08:20:30.210Z,179.00
2023-01-09T08:21:30.160Z,170.20
2023-01-09T08:22:30.137Z,98.40
2023-01-09T08:23:30.111Z,104.90
2023-01-09T08:24:30.123Z,94.30
2023-01-09T08:25:30.144Z,123.60
2023-01-09T08:26:30.114Z,209.80
2023-01-09T08:27:30.070Z,99.50
2023-01-09T08:28:30.067Z,222.70
2023-01-09T08:29:30.035Z,113.30
2023-01-09T08:30:30.081Z,137.20
2023-01-09T08:31:30.029Z,185.80
2023-01-09T08:32:30.014Z,102.30
2023-01-09T08:33:30.007Z,96.90
2023-01-09T08:34:30.005Z,103.50
2023-01-09T08:35:30.024Z,129.10
2023-01-09T08:36:29.960Z,137.70
2023-01-09T08:37:29.976Z,158.70
2023-01-09T08:38:30.029Z,191.50
2023-01-09T08:39:29.933Z,134.40
2023-01-09T08:40:29.971Z,120.90
2023-01-09T08:41:29.910Z,172.60
2023-01-09T08:42:29.923Z,127.50
2023-01-09T08:43:29.913Z,142.20
2023-01-09T08:44:29.903Z,138.80
2023-01-09T08:45:29.923Z,135.60
2023-01-09T08:46:29.888Z,134.90
2023-01-09T08:47:29.856Z,145.30
2023-01-09T08:48:29.829Z,124.80
2023-01-09T08:49:29.844Z,116.00
2023-01-09T08:50:29.871Z,136.50
2023-01-09T08:51:29.826Z,162.60
2023-01-09T08:52:29.798Z,179.40
2023-01-09T08:53:29.809Z,121.90
2023-01-09T08:54:31.268Z,203.30
2023-01-09T08:55:29.787Z,170.90
2023-01-09T08:56:29.775Z,132.90
2023-01-09T08:57:29.743Z,134.60
2023-01-09T08:58:29.747Z,183.30
2023-01-09T08:59:29.726Z,196.40
2023-01-09T09:00:29.759Z,150.70
2023-01-09T09:01:29.745Z,143.30
2023-01-09T09:02:29.697Z,158.50
2023-01-09T09:03:29.676Z,146.50
2023-01-09T09:04:29.674Z,129.70
2023-01-09T09:05:29.673Z,138.00
2023-01-09T09:06:29.631Z,132.70
2023-01-09T09:07:29.640Z,133.40
2023-01-09T09:08:29.617Z,141.20
2023-01-09T09:09:29.634Z,119.30
2023-01-09T09:10:29.632Z,113.60
2023-01-09T09:11:29.583Z,119.80
2023-01-09T09:12:29.571Z,131.40
2023-01-09T09:13:29.557Z,145.60
2023-01-09T09:14:29.559Z,122.30
2023-01-09T09:15:29.579Z,125.10
2023-01-09T09:16:29.596Z,150.90
2023-01-09T09:17:29.529Z,138.60
2023-01-09T09:18:29.493Z,145.10
2023-01-09T09:19:29.502Z,145.50
2023-01-09T09:20:29.534Z,140.00
2023-01-09T09:21:29.453Z,164.10
2023-01-09T09:22:29.466Z,228.60
2023-01-09T09:23:29.463Z,140.30
2023-01-09T09:24:29.441Z,341.40
2023-01-09T09:25:29.435Z,182.00
2023-01-09T09:26:29.421Z,134.50
2023-01-09T09:27:29.394Z,112.90
2023-01-09T09:28:29.397Z,139.80
2023-01-09T09:29:29.391Z,113.80
2023-01-09T09:30:29.400Z,148.00
2023-01-09T09:31:29.388Z,139.20
2023-01-09T09:32:29.323Z,100.10
2023-01-09T09:33:29.325Z,141.80
2023-01-09T09:34:29.303Z,491.00
2023-01-09T09:35:29.359Z,207.40
2023-01-09T09:36:29.315Z,687.80
2023-01-09T09:37:29.280Z,229.80
2023-01-09T09:38:29.273Z,248.10
2023-01-09T09:39:29.274Z,283.20
2023-01-09T09:40:29.295Z,317.90
2023-01-09T09:41:29.290Z,201.60
2023-01-09T09:42:29.240Z,331.70
2023-01-09T09:43:29.219Z,334.70
2023-01-09T09:44:29.208Z,326.10
2023-01-09T09:45:29.243Z,330.20
2023-01-09T09:46:29.226Z,999.90
2023-01-09T09:47:29.188Z,999.90
2023-01-09T09:48:29.189Z,399.80
2023-01-09T09:49:29.178Z,269.20
2023-01-09T09:50:29.146Z,999.90
2023-01-09T09:51:29.176Z,246.10
2023-01-09T09:52:29.109Z,297.80
2023-01-09T09:53:29.101Z,286.70
2023-01-09T09:54:29.099Z,231.30
2023-01-09T09:55:29.090Z,252.80
2023-01-09T09:56:29.126Z,999.90
2023-01-09T09:57:29.064Z,999.90
2023-01-09T09:58:29.031Z,299.40
2023-01-09T09:59:29.028Z,261.70
2023-01-09T10:00:29.051Z,246.40
2023-01-09T10:01:29.083Z,228.60
2023-01-09T10:02:29.052Z,221.30
2023-01-09T10:03:33.932Z,197.80
2023-01-09T10:04:29.968Z,218.00
2023-01-09T10:05:28.966Z,201.50
2023-01-09T10:06:29.021Z,191.70
2023-01-09T10:07:28.961Z,999.90
2023-01-09T10:08:28.930Z,999.90
2023-01-09T10:09:28.944Z,218.60
2023-01-09T10:10:29.027Z,220.10
2023-01-09T10:11:28.939Z,254.00
2023-01-09T10:12:28.919Z,269.70
2023-01-09T10:13:29.969Z,273.00
2023-01-09T10:14:28.891Z,227.70
2023-01-09T10:15:28.850Z,279.20
2023-01-09T10:16:28.887Z,263.90
2023-01-09T10:17:28.849Z,269.60
2023-01-09T10:18:28.815Z,265.10
2023-01-09T10:19:28.827Z,287.90
2023-01-09T10:20:28.799Z,290.70
2023-01-09T10:21:28.940Z,258.60
2023-01-09T10:22:28.774Z,999.90
2023-01-09T10:23:28.752Z,228.00
2023-01-09T10:24:28.766Z,175.90
2023-01-09T10:25:28.781Z,168.80
2023-01-09T10:26:28.751Z,160.70
2023-01-09T10:27:28.725Z,174.70
2023-01-09T10:28:28.719Z,148.60
2023-01-09T10:29:28.698Z,145.40
2023-01-09T10:30:28.732Z,140.40
2023-01-09T10:31:28.710Z,142.90
2023-01-09T10:32:28.693Z,137.10
2023-01-09T10:33:28.664Z,73.40
2023-01-09T10:34:28.649Z,999.90
2023-01-09T10:35:36.125Z,159.00
2023-01-09T10:36:29.614Z,180.20
2023-01-09T10:37:28.617Z,151.40
2023-01-09T10:38:28.632Z,142.20
2023-01-09T10:39:28.594Z,147.40
2023-01-09T10:40:28.578Z,182.20
2023-01-09T10:41:28.575Z,238.00
2023-01-09T10:42:28.595Z,999.90
2023-01-09T10:43:28.542Z,999.90
2023-01-09T10:44:28.529Z,291.30
2023-01-09T10:45:28.518Z,316.40
2023-01-09T10:46:28.578Z,325.90
2023-01-09T10:47:28.545Z,302.30
2023-01-09T10:48:28.467Z,999.90
2023-01-09T10:49:28.484Z,273.10
2023-01-09T10:50:28.463Z,308.20
2023-01-09T10:51:28.469Z,284.20
2023-01-09T10:52:28.456Z,305.90
2023-01-09T10:53:28.510Z,999.90
2023-01-09T10:54:28.429Z,312.60
2023-01-09T10:55:28.419Z,999.90
2023-01-09T10:56:28.415Z,999.90
2023-01-09T10:57:28.438Z,999.90
2023-01-09T10:58:28.371Z,999.90
2023-01-09T10:59:28.357Z,999.90
2023-01-09T11:00:28.355Z,999.90
2023-01-09T11:01:28.339Z,999.90
2023-01-09T11:02:28.358Z,999.90
2023-01-09T11:03:28.441Z,999.90
2023-01-09T11:04:28.291Z,999.90
2023-01-09T11:05:28.420Z,999.90
2023-01-09T11:06:28.273Z,999.90
2023-01-09T11:07:28.281Z,999.90
2023-01-09T11:08:28.283Z,999.90
2023-01-09T11:09:28.240Z,999.90
2023-01-09T11:10:28.236Z,999.90
2023-01-09T11:11:28.227Z,999.90
2023-01-09T11:12:28.208Z,999.90
2023-01-09T11:13:28.231Z,999.90
2023-01-09T11:14:28.185Z,999.90
2023-01-09T11:15:28.205Z,999.90
2023-01-09T11:16:28.264Z,999.90
2023-01-09T11:17:28.175Z,999.90
2023-01-09T11:18:28.192Z,999.90
2023-01-09T11:19:28.131Z,999.90
2023-01-09T11:20:28.130Z,999.90
2023-01-09T11:21:28.107Z,999.90
2023-01-09T11:22:28.096Z,999.90
2023-01-09T11:23:28.130Z,999.90
2023-01-09T11:24:28.106Z,999.90
2023-01-09T11:25:28.077Z,999.90
2023-01-09T11:26:28.092Z,999.90
2023-01-09T11:27:28.087Z,999.90
2023-01-09T11:28:28.060Z,999.90
2023-01-09T11:29:28.011Z,999.90
2023-01-09T11:30:28.043Z,999.90
2023-01-09T11:31:28.090Z,999.90
2023-01-09T11:32:27.965Z,999.90
2023-01-09T11:33:28.015Z,999.90
2023-01-09T11:34:27.967Z,999.90
2023-01-09T11:35:27.988Z,999.90
2023-01-09T11:36:27.943Z,999.90
2023-01-09T11:37:27.937Z,999.90
2023-01-09T11:38:27.991Z,999.90
2023-01-09T11:39:27.900Z,999.90
2023-01-09T11:40:27.898Z,999.90
2023-01-09T11:41:27.901Z,999.90
2023-01-09T11:42:27.859Z,999.90
2023-01-09T11:43:27.947Z,999.90
2023-01-09T11:44:27.825Z,999.90
2023-01-09T11:45:27.858Z,999.90
2023-01-09T11:46:27.845Z,999.90
2023-01-09T11:47:27.840Z,999.90
2023-01-09T11:48:27.847Z,999.90
2023-01-09T11:49:27.825Z,999.90
2023-01-09T11:50:27.829Z,999.90
2023-01-09T11:51:27.769Z,999.90
2023-01-09T11:52:27.790Z,999.90
2023-01-09T11:53:27.770Z,999.90
2023-01-09T11:54:27.765Z,999.90
2023-01-09T11:55:34.852Z,999.90
2023-01-09T11:56:28.718Z,999.90
2023-01-09T11:57:27.699Z,999.90
2023-01-09T11:58:27.668Z,999.90
2023-01-09T11:59:27.720Z,999.90
2023-01-09T12:00:27.655Z,999.90
2023-01-09T12:01:27.640Z,999.90
2023-01-09T12:02:27.631Z,999.90
2023-01-09T12:03:27.763Z,999.90
2023-01-09T12:04:27.688Z,999.90
2023-01-09T12:05:27.628Z,999.90
2023-01-09T12:06:27.611Z,999.90
2023-01-09T12:07:27.587Z,999.90
2023-01-09T12:08:27.593Z,999.90
2023-01-09T12:09:27.632Z,999.90
2023-01-09T12:10:27.570Z,999.90
2023-01-09T12:11:27.551Z,999.90
2023-01-09T12:12:27.538Z,999.90
2023-01-09T12:13:27.546Z,999.90
2023-01-09T12:14:27.544Z,999.90
2023-01-09T12:15:27.503Z,999.90
2023-01-09T12:16:27.580Z,999.90
2023-01-09T12:17:27.488Z,999.90
2023-01-09T12:18:27.470Z,999.90
2023-01-09T12:19:27.497Z,999.90
2023-01-09T12:20:27.430Z,999.90
2023-01-09T12:21:27.455Z,999.90
2023-01-09T12:22:27.435Z,999.90
2023-01-09T12:23:27.404Z,999.90
2023-01-09T12:24:27.427Z,999.90
2023-01-09T12:25:27.396Z,999.90
2023-01-09T12:26:27.384Z,999.90
2023-01-09T12:27:27.364Z,999.90
2023-01-09T12:28:27.346Z,999.90
2023-01-09T12:29:27.378Z,999.90